createdAt,value
2024-04-19T00:01:22.140Z,2.60
2024-04-19T00:03:51.147Z,2.30
2024-04-19T00:06:17.444Z,3.03
2024-04-19T00:08:47.758Z,2.40
2024-04-19T00:11:14.004Z,2.07
2024-04-19T00:13:42.335Z,2.40
2024-04-19T00:16:08.627Z,2.10
2024-04-19T00:18:37.049Z,2.23
2024-04-19T00:21:03.729Z,2.37
2024-04-19T00:23:32.026Z,2.47
2024-04-19T00:26:02.306Z,2.40
2024-04-19T00:28:28.534Z,2.47
2024-04-19T00:30:57.129Z,2.27
2024-04-19T00:33:25.526Z,2.27
2024-04-19T00:35:51.792Z,1.93
2024-04-19T00:38:19.995Z,2.20
2024-04-19T00:40:46.355Z,2.47
2024-04-19T00:43:16.692Z,2.73
2024-04-19T00:45:43.045Z,2.63
2024-04-19T00:48:14.117Z,2.53
2024-04-19T00:50:40.540Z,2.70
2024-04-19T00:53:09.370Z,2.23
2024-04-19T00:55:35.651Z,2.40
2024-04-19T00:58:04.505Z,2.63
2024-04-19T01:00:32.805Z,2.67
2024-04-19T01:03:01.174Z,2.80
2024-04-19T01:05:27.437Z,2.70
2024-04-19T01:07:55.997Z,2.40
2024-04-19T01:10:22.681Z,2.80
2024-04-19T01:12:51.700Z,2.77
2024-04-19T01:15:18.781Z,2.93
2024-04-19T01:17:49.227Z,2.60
2024-04-19T01:20:15.592Z,2.43
2024-04-19T01:22:45.420Z,3.13
2024-04-19T01:25:16.822Z,2.87
2024-04-19T01:27:47.200Z,2.87
2024-04-19T01:30:14.017Z,3.03
2024-04-19T01:32:42.390Z,2.77
2024-04-19T01:35:08.642Z,3.17
2024-04-19T01:37:36.874Z,2.93
2024-04-19T01:40:03.528Z,3.00
2024-04-19T01:42:31.726Z,2.97
2024-04-19T01:45:00.072Z,3.23
2024-04-19T01:47:28.360Z,3.40
2024-04-19T01:49:54.676Z,3.13
2024-04-19T01:52:22.910Z,3.20
2024-04-19T01:54:49.266Z,3.43
2024-04-19T01:57:17.540Z,3.83
2024-04-19T01:59:43.757Z,3.77
2024-04-19T02:02:14.127Z,3.60
2024-04-19T02:04:40.415Z,3.73
2024-04-19T02:07:08.732Z,4.07
2024-04-19T02:09:35.484Z,4.07
2024-04-19T02:12:03.855Z,3.90
2024-04-19T02:14:30.943Z,4.33
2024-04-19T02:16:59.719Z,4.40
2024-04-19T02:19:29.924Z,4.50
2024-04-19T02:21:58.216Z,4.37
2024-04-19T02:24:24.468Z,5.53
2024-04-19T02:26:52.920Z,4.53
2024-04-19T02:29:37.848Z,4.30
2024-04-19T02:32:06.703Z,4.70
2024-04-19T02:34:37.426Z,5.47
2024-04-19T02:37:06.082Z,5.27
2024-04-19T02:39:34.356Z,5.30
2024-04-19T02:42:02.812Z,5.60
2024-04-19T02:44:31.040Z,6.23
2024-04-19T02:46:59.433Z,6.17
2024-04-19T02:49:27.808Z,5.80
2024-04-19T02:51:59.820Z,6.13
2024-04-19T02:54:28.226Z,6.37
2024-04-19T02:56:56.442Z,6.77
2024-04-19T02:59:24.740Z,6.53
2024-04-19T03:01:52.933Z,5.90
2024-04-19T03:04:21.279Z,6.83
2024-04-19T03:06:49.640Z,7.13
2024-04-19T03:09:20.003Z,6.87
2024-04-19T03:11:48.391Z,8.20
2024-04-19T03:14:16.709Z,7.57
2024-04-19T03:16:45.020Z,7.30
2024-04-19T03:19:13.372Z,7.00
2024-04-19T03:21:41.694Z,6.63
2024-04-19T03:24:11.247Z,6.00
2024-04-19T03:26:39.498Z,5.60
2024-04-19T03:29:07.780Z,5.53
2024-04-19T03:31:35.966Z,6.10
2024-04-19T03:34:04.247Z,5.30
2024-04-19T03:36:32.691Z,6.07
2024-04-19T03:39:01.059Z,4.90
2024-04-19T03:41:33.725Z,5.23
2024-04-19T03:44:18.355Z,4.30
2024-04-19T03:46:46.679Z,4.47
2024-04-19T03:49:15.023Z,4.77
2024-04-19T03:51:43.358Z,4.63
2024-04-19T03:54:11.759Z,5.13
2024-04-19T03:56:40.144Z,4.80
2024-04-19T03:59:10.438Z,4.97
2024-04-19T04:01:39.325Z,5.07
2024-04-19T04:04:08.283Z,4.40
2024-04-19T04:06:36.619Z,7.80
2024-04-19T04:09:05.080Z,6.90
2024-04-19T04:11:33.397Z,5.13
2024-04-19T04:14:01.627Z,4.80
2024-04-19T04:16:31.961Z,4.07
2024-04-19T04:19:00.538Z,4.13
2024-04-19T04:21:28.836Z,4.07
2024-04-19T04:23:57.244Z,4.63
2024-04-19T04:26:25.586Z,4.20
2024-04-19T04:28:54.002Z,4.43
2024-04-19T04:31:22.348Z,4.07
2024-04-19T04:33:52.630Z,4.47
2024-04-19T04:36:20.909Z,3.87
2024-04-19T04:38:49.138Z,3.37
2024-04-19T04:41:17.488Z,3.27
2024-04-19T04:43:45.696Z,3.30
2024-04-19T04:46:14.029Z,3.13
2024-04-19T04:48:42.298Z,3.23
2024-04-19T04:51:12.592Z,3.77
2024-04-19T04:53:42.521Z,3.13
2024-04-19T04:56:10.873Z,3.73
2024-04-19T04:58:39.204Z,4.13
2024-04-19T05:01:08.728Z,3.40
2024-04-19T05:03:37.176Z,3.20
2024-04-19T05:06:05.899Z,3.50
2024-04-19T05:08:36.237Z,3.13
2024-04-19T05:11:06.671Z,3.10
2024-04-19T05:13:35.513Z,2.60
2024-04-19T05:16:04.604Z,3.53
2024-04-19T05:18:33.021Z,3.33
2024-04-19T05:21:01.442Z,2.73
2024-04-19T05:23:29.755Z,3.07
2024-04-19T05:26:04.149Z,3.17
2024-04-19T05:28:33.012Z,2.83
2024-04-19T05:31:01.334Z,2.93
2024-04-19T05:33:30.074Z,2.67
2024-04-19T05:35:58.442Z,2.70
2024-04-19T05:38:26.798Z,3.17
2024-04-19T05:40:55.110Z,3.10
2024-04-19T05:43:25.632Z,2.20
2024-04-19T05:45:54.073Z,3.00
2024-04-19T05:48:22.866Z,2.97
2024-04-19T05:50:51.300Z,2.63
2024-04-19T05:53:19.523Z,2.87
2024-04-19T05:55:47.852Z,2.50
2024-04-19T05:58:16.213Z,2.87
2024-04-19T06:00:46.720Z,2.70
2024-04-19T06:03:15.271Z,2.73
2024-04-19T06:05:43.624Z,3.03
2024-04-19T06:08:13.163Z,2.60
2024-04-19T06:10:41.417Z,2.80
2024-04-19T06:13:09.690Z,2.53
2024-04-19T06:15:40.671Z,2.40
2024-04-19T06:18:11.267Z,2.37
2024-04-19T06:20:43.015Z,2.43
2024-04-19T06:23:11.710Z,3.00
2024-04-19T06:25:39.940Z,2.77
2024-04-19T06:28:08.281Z,3.90
2024-04-19T06:30:36.550Z,3.87
2024-04-19T06:33:05.008Z,3.23
2024-04-19T06:35:36.331Z,3.27
2024-04-19T06:38:04.955Z,4.30
2024-04-19T06:40:33.311Z,4.00
2024-04-19T06:43:01.545Z,3.60
2024-04-19T06:45:29.819Z,3.93
2024-04-19T06:47:58.495Z,3.10
2024-04-19T06:50:27.305Z,3.17
2024-04-19T06:52:57.605Z,2.97
2024-04-19T06:55:25.907Z,3.00
2024-04-19T06:57:57.432Z,3.00
2024-04-19T07:00:37.087Z,3.10
2024-04-19T07:03:14.551Z,3.43
2024-04-19T07:05:43.073Z,3.47
2024-04-19T07:08:13.640Z,3.50
2024-04-19T07:10:42.242Z,3.23
2024-04-19T07:13:10.579Z,3.40
2024-04-19T07:15:40.100Z,3.60
2024-04-19T07:18:08.526Z,3.80
2024-04-19T07:20:36.856Z,3.73
2024-04-19T07:23:05.261Z,3.80
2024-04-19T07:25:35.646Z,3.93
2024-04-19T07:28:04.016Z,4.37
2024-04-19T07:30:32.311Z,4.87
2024-04-19T07:33:00.725Z,4.53
2024-04-19T07:35:29.065Z,4.43
2024-04-19T07:37:57.482Z,4.90
2024-04-19T07:40:25.863Z,4.63
2024-04-19T07:42:57.365Z,4.87
2024-04-19T07:45:25.763Z,5.10
2024-04-19T07:47:54.488Z,4.53
2024-04-19T07:50:23.319Z,4.90
2024-04-19T07:52:52.984Z,5.00
2024-04-19T07:55:21.502Z,5.00
2024-04-19T07:57:50.567Z,5.83
2024-04-19T08:00:22.813Z,4.87
2024-04-19T08:02:51.161Z,5.23
2024-04-19T08:05:20.135Z,4.50
2024-04-19T08:07:48.391Z,4.80
2024-04-19T08:10:16.817Z,4.87
2024-04-19T08:12:46.341Z,4.87
2024-04-19T08:15:14.585Z,4.90
2024-04-19T08:17:44.950Z,5.03
2024-04-19T08:20:13.625Z,4.80
2024-04-19T08:22:41.850Z,5.07
2024-04-19T08:25:10.280Z,5.10
2024-04-19T08:27:38.648Z,5.90
2024-04-19T08:30:08.257Z,5.43
2024-04-19T08:32:36.661Z,5.57
2024-04-19T08:35:07.180Z,5.83
2024-04-19T08:37:35.518Z,6.60
2024-04-19T08:40:04.058Z,5.70
2024-04-19T08:42:32.741Z,6.40
2024-04-19T08:45:02.606Z,6.50
2024-04-19T08:47:35.842Z,6.70
2024-04-19T08:50:07.245Z,6.63
2024-04-19T08:52:58.129Z,6.97
2024-04-19T08:55:24.728Z,6.40
2024-04-19T08:57:53.282Z,7.37
2024-04-19T09:00:22.934Z,7.47
2024-04-19T09:02:51.637Z,7.53
2024-04-19T09:05:22.064Z,7.93
2024-04-19T09:07:50.367Z,7.40
2024-04-19T09:10:21.199Z,7.60
2024-04-19T09:12:49.430Z,7.10
2024-04-19T09:15:17.843Z,7.40
2024-04-19T09:17:46.137Z,7.30
2024-04-19T09:20:14.938Z,7.50
2024-04-19T09:22:45.323Z,7.57
2024-04-19T09:25:16.261Z,7.47
2024-04-19T09:27:44.647Z,7.03
2024-04-19T09:30:14.146Z,7.00
2024-04-19T09:32:42.569Z,6.37
2024-04-19T09:35:11.134Z,7.13
2024-04-19T09:37:39.940Z,7.10
2024-04-19T09:40:12.368Z,6.83
2024-04-19T09:42:41.602Z,6.40
2024-04-19T09:45:11.458Z,6.30
2024-04-19T09:47:41.187Z,5.50
2024-04-19T09:50:13.768Z,4.37
2024-04-19T09:52:46.020Z,3.60
2024-04-19T09:55:20.361Z,3.87
2024-04-19T09:57:50.285Z,2.77
2024-04-19T10:00:19.090Z,3.47
2024-04-19T10:02:47.626Z,3.40
2024-04-19T10:05:16.257Z,3.60
2024-04-19T10:07:44.531Z,3.67
2024-04-19T10:10:12.823Z,4.27
2024-04-19T10:12:43.575Z,3.80
2024-04-19T10:15:13.050Z,4.07
2024-04-19T10:17:42.158Z,3.83
2024-04-19T10:20:12.208Z,4.10
2024-04-19T10:22:42.877Z,5.03
2024-04-19T10:25:13.451Z,5.77
2024-04-19T10:27:47.660Z,5.73
2024-04-19T10:30:22.184Z,6.03
2024-04-19T10:32:56.630Z,6.33
2024-04-19T10:35:25.075Z,6.20
2024-04-19T10:37:53.504Z,5.90
2024-04-19T10:40:22.829Z,5.97
2024-04-19T10:43:01.439Z,5.87
2024-04-19T10:45:31.407Z,5.53
2024-04-19T10:48:00.252Z,5.90
2024-04-19T10:50:29.138Z,5.27
2024-04-19T10:52:57.771Z,4.70
2024-04-19T10:55:28.218Z,4.30
2024-04-19T10:57:58.813Z,3.00
2024-04-19T11:00:27.389Z,2.57
2024-04-19T11:03:06.884Z,2.80
2024-04-19T11:05:43.114Z,2.37
2024-04-19T11:08:11.578Z,2.10
2024-04-19T11:10:39.903Z,1.57
2024-04-19T11:13:10.817Z,1.30
2024-04-19T11:15:48.274Z,1.37
2024-04-19T11:18:21.366Z,1.07
2024-04-19T11:20:56.871Z,0.90
2024-04-19T11:23:34.275Z,0.90
2024-04-19T11:26:02.695Z,0.90
2024-04-19T11:28:33.106Z,1.20
2024-04-19T11:31:03.434Z,1.10
2024-04-19T11:33:29.784Z,1.40
2024-04-19T11:35:58.232Z,0.90
2024-04-19T11:38:26.553Z,1.10
2024-04-19T11:40:54.893Z,0.97
2024-04-19T11:43:23.238Z,1.00
2024-04-19T11:45:54.646Z,1.30
2024-04-19T11:48:26.382Z,1.20
2024-04-19T11:50:55.892Z,1.30
2024-04-19T11:53:22.198Z,1.10
2024-04-19T11:55:51.281Z,1.40
2024-04-19T11:58:19.551Z,1.60
2024-04-19T12:00:48.280Z,1.30
2024-04-19T12:03:18.840Z,1.60
2024-04-19T12:05:47.519Z,1.50
2024-04-19T12:08:16.152Z,1.63
2024-04-19T12:10:44.860Z,1.60
2024-04-19T12:13:51.166Z,1.63
2024-04-19T12:16:31.889Z,2.00
2024-04-19T12:18:52.086Z,1.90
2024-04-19T12:21:21.023Z,1.73
2024-04-19T12:23:51.060Z,1.83
2024-04-19T12:26:21.687Z,2.10
2024-04-19T12:28:54.476Z,1.90
2024-04-19T12:31:24.990Z,2.20
2024-04-19T12:33:55.964Z,2.53
2024-04-19T12:36:24.354Z,2.43
2024-04-19T12:38:52.954Z,2.00
2024-04-19T12:41:21.391Z,1.70
2024-04-19T12:43:49.841Z,1.40
2024-04-19T12:46:18.237Z,0.80
2024-04-19T12:48:48.227Z,0.70
2024-04-19T12:51:24.059Z,0.70
2024-04-19T12:53:52.477Z,0.80
2024-04-19T12:56:21.107Z,0.83
2024-04-19T12:58:49.518Z,0.70
2024-04-19T13:01:17.842Z,0.90
2024-04-19T13:03:49.620Z,1.00
2024-04-19T13:06:21.627Z,1.10
2024-04-19T13:08:50.918Z,1.10
2024-04-19T13:11:19.166Z,1.17
2024-04-19T13:13:53.336Z,1.07
2024-04-19T13:16:21.899Z,1.07
2024-04-19T13:18:50.432Z,1.10
2024-04-19T13:21:22.933Z,0.80
2024-04-19T13:23:51.358Z,0.80
2024-04-19T13:26:23.694Z,0.93
2024-04-19T13:28:55.813Z,0.63
2024-04-19T13:31:24.786Z,0.70
2024-04-19T13:33:53.207Z,0.70
2024-04-19T13:36:23.901Z,0.83
2024-04-19T13:38:52.451Z,0.90
2024-04-19T13:41:20.812Z,0.90
2024-04-19T13:43:47.339Z,0.80
2024-04-19T13:46:15.778Z,0.70
2024-04-19T13:48:44.190Z,0.93
2024-04-19T13:51:12.630Z,0.90
2024-04-19T13:53:43.473Z,0.43
2024-04-19T13:56:12.082Z,0.80
2024-04-19T13:58:40.322Z,0.60
2024-04-19T14:01:09.093Z,1.33
2024-04-19T14:03:37.451Z,0.73
2024-04-19T14:06:06.128Z,0.90
2024-04-19T14:08:35.723Z,0.90
2024-04-19T14:11:06.342Z,0.83
2024-04-19T14:13:34.619Z,0.67
2024-04-19T14:16:03.034Z,0.80
2024-04-19T14:18:31.356Z,0.53
2024-04-19T14:20:59.764Z,0.40
2024-04-19T14:23:29.781Z,0.40
2024-04-19T14:26:00.234Z,0.40
2024-04-19T14:28:31.407Z,0.50
2024-04-19T14:30:59.799Z,0.60
2024-04-19T14:33:28.208Z,0.60
2024-04-19T14:35:56.542Z,0.90
2024-04-19T14:38:24.938Z,0.80
2024-04-19T14:40:53.268Z,0.67
2024-04-19T14:43:21.593Z,0.80
2024-04-19T14:45:52.010Z,1.00
2024-04-19T14:48:20.800Z,1.10
2024-04-19T14:50:49.081Z,0.93
2024-04-19T14:53:17.417Z,1.20
2024-04-19T14:55:46.655Z,1.00
2024-04-19T14:58:14.930Z,1.07
2024-04-19T15:00:43.505Z,0.83
2024-04-19T15:03:14.005Z,0.90
2024-04-19T15:05:42.417Z,1.40
2024-04-19T15:08:10.681Z,1.13
2024-04-19T15:10:39.428Z,1.13
2024-04-19T15:13:07.725Z,1.00
2024-04-19T15:15:36.288Z,1.30
2024-04-19T15:18:04.815Z,1.10
2024-04-19T15:20:37.938Z,1.50
2024-04-19T15:23:06.967Z,1.23
2024-04-19T15:25:37.584Z,1.40
2024-04-19T15:28:09.574Z,1.40
2024-04-19T15:30:38.608Z,1.30
2024-04-19T15:33:07.448Z,2.33
2024-04-19T15:35:37.976Z,1.50
2024-04-19T15:38:10.501Z,1.40
2024-04-19T15:40:40.321Z,1.27
2024-04-19T15:43:08.564Z,1.27
2024-04-19T15:45:37.112Z,1.33
2024-04-19T15:48:05.760Z,1.73
2024-04-19T15:50:34.184Z,1.40
2024-04-19T15:53:04.584Z,1.50
2024-04-19T15:55:32.892Z,2.27
2024-04-19T15:58:01.303Z,1.40
2024-04-19T16:00:30.158Z,1.37
2024-04-19T16:02:59.587Z,2.77
2024-04-19T16:05:27.864Z,1.97
2024-04-19T16:07:56.174Z,1.70
2024-04-19T16:10:26.709Z,1.70
2024-04-19T16:12:55.688Z,1.30
2024-04-19T16:15:24.060Z,1.73
2024-04-19T16:17:52.464Z,1.70
2024-04-19T16:20:20.947Z,2.10
2024-04-19T16:22:49.251Z,2.00
2024-04-19T16:25:17.630Z,2.20
2024-04-19T16:27:48.046Z,1.70
2024-04-19T16:30:16.518Z,2.13
2024-04-19T16:32:44.905Z,1.40
2024-04-19T16:35:11.323Z,1.70
2024-04-19T16:37:39.934Z,2.23
2024-04-19T16:40:09.572Z,1.57
2024-04-19T16:42:37.861Z,1.87
2024-04-19T16:45:08.869Z,1.53
2024-04-19T16:47:37.410Z,1.47
2024-04-19T16:50:06.438Z,1.40
2024-04-19T16:52:34.870Z,1.30
2024-04-19T16:55:03.247Z,2.03
2024-04-19T16:57:31.474Z,1.50
2024-04-19T16:59:59.728Z,1.40
2024-04-19T17:02:30.101Z,1.03
2024-04-19T17:04:58.534Z,1.30
2024-04-19T17:07:26.972Z,1.43
2024-04-19T17:09:55.462Z,1.43
2024-04-19T17:12:24.821Z,1.30
2024-04-19T17:14:53.658Z,1.40
2024-04-19T17:17:22.052Z,1.30
2024-04-19T17:19:54.747Z,1.40
2024-04-19T17:22:23.120Z,1.50
2024-04-19T17:24:51.546Z,1.30
2024-04-19T17:27:20.003Z,1.60
2024-04-19T17:29:48.321Z,1.00
2024-04-19T17:32:16.741Z,1.03
2024-04-19T17:34:45.008Z,1.70
2024-04-19T17:37:16.626Z,1.77
2024-04-19T17:39:44.853Z,1.33
2024-04-19T17:42:13.311Z,1.40
2024-04-19T17:44:41.630Z,1.27
2024-04-19T17:47:10.021Z,1.33
2024-04-19T17:49:38.344Z,1.53
2024-04-19T17:52:07.275Z,0.60
2024-04-19T17:54:37.718Z,0.93
2024-04-19T17:57:06.651Z,1.30
2024-04-19T17:59:34.926Z,1.03
2024-04-19T18:02:03.904Z,0.93
2024-04-19T18:04:32.182Z,0.87
2024-04-19T18:07:00.884Z,4.13
2024-04-19T18:09:29.215Z,1.00
2024-04-19T18:11:59.767Z,1.00
2024-04-19T18:14:28.111Z,0.93
2024-04-19T18:16:56.948Z,0.83
2024-04-19T18:19:26.105Z,1.30
2024-04-19T18:21:54.647Z,1.23
2024-04-19T18:24:27.099Z,1.27
2024-04-19T18:26:55.666Z,1.30
2024-04-19T18:29:27.134Z,1.70
2024-04-19T18:31:55.682Z,1.47
2024-04-19T18:34:24.154Z,1.40
2024-04-19T18:36:52.591Z,1.50
2024-04-19T18:39:21.287Z,1.50
2024-04-19T18:41:50.084Z,1.67
2024-04-19T18:44:18.796Z,1.83
2024-04-19T18:46:49.448Z,1.70
2024-04-19T18:49:18.147Z,1.70
2024-04-19T18:51:46.576Z,2.27
2024-04-19T18:54:15.364Z,1.40
2024-04-19T18:56:44.505Z,1.77
2024-04-19T18:59:12.742Z,2.23
2024-04-19T19:01:41.708Z,1.73
2024-04-19T19:04:12.801Z,1.87
2024-04-19T19:06:41.790Z,1.90
2024-04-19T19:09:10.918Z,1.77
2024-04-19T19:11:39.336Z,1.63
2024-04-19T19:14:07.973Z,1.90
2024-04-19T19:16:37.345Z,1.50
2024-04-19T19:19:06.699Z,1.57
2024-04-19T19:21:37.966Z,1.80
2024-04-19T19:24:06.766Z,1.37
2024-04-19T19:30:22.278Z,1.43
2024-04-19T19:32:50.870Z,1.57
2024-04-19T19:35:19.237Z,1.80
2024-04-19T19:37:49.635Z,2.40
2024-04-19T19:40:22.318Z,1.60
2024-04-19T19:42:51.324Z,1.37
2024-04-19T19:45:19.600Z,1.63
2024-04-19T19:47:48.328Z,2.07
2024-04-19T19:50:16.737Z,1.50
2024-04-19T19:52:45.035Z,1.13
2024-04-19T19:55:15.378Z,1.10
2024-04-19T19:57:43.718Z,1.40
2024-04-19T20:00:29.488Z,1.00
2024-04-19T20:03:14.495Z,1.77
2024-04-19T20:05:50.185Z,1.67
2024-04-19T20:08:18.576Z,1.63
2024-04-19T20:10:49.011Z,1.70
2024-04-19T20:13:17.343Z,1.70
2024-04-19T20:15:49.607Z,2.20
2024-04-19T20:18:19.433Z,1.97
2024-04-19T20:20:49.394Z,2.03
2024-04-19T20:23:18.174Z,2.10
2024-04-19T20:25:48.509Z,2.00
2024-04-19T20:28:16.928Z,2.50
2024-04-19T20:30:45.388Z,1.80
2024-04-19T20:33:13.785Z,2.10
2024-04-19T20:35:42.325Z,2.27
2024-04-19T20:38:10.687Z,1.83
2024-04-19T20:40:39.699Z,1.67
2024-04-19T20:43:18.388Z,1.93
2024-04-19T20:45:49.171Z,2.57
2024-04-19T20:48:19.060Z,2.07
2024-04-19T20:50:49.378Z,2.60
2024-04-19T20:53:17.615Z,2.40
2024-04-19T20:55:45.886Z,1.87
2024-04-19T20:58:16.144Z,2.03
2024-04-19T21:00:45.074Z,1.90
2024-04-19T21:03:13.397Z,2.13
2024-04-19T21:05:42.358Z,2.00
2024-04-19T21:08:10.647Z,2.40
2024-04-19T21:10:38.987Z,2.00
2024-04-19T21:13:07.545Z,2.63
2024-04-19T21:15:37.909Z,2.10
2024-04-19T21:18:06.818Z,2.37
2024-04-19T21:20:36.406Z,2.10
2024-04-19T21:23:04.894Z,2.47
2024-04-19T21:25:33.075Z,2.33
2024-04-19T21:28:01.404Z,2.73
2024-04-19T21:30:29.714Z,2.20
2024-04-19T21:33:00.078Z,2.20
2024-04-19T21:35:28.436Z,2.07
2024-04-19T21:37:56.752Z,2.10
2024-04-19T21:40:25.124Z,2.00
2024-04-19T21:42:55.252Z,2.30
2024-04-19T21:45:25.745Z,2.20
2024-04-19T21:47:54.406Z,2.73
2024-04-19T21:50:24.686Z,2.00
2024-04-19T21:52:52.906Z,2.13
2024-04-19T21:55:21.115Z,1.97
2024-04-19T21:57:49.503Z,1.60
2024-04-19T22:00:18.053Z,2.03
2024-04-19T22:02:48.423Z,1.70
2024-04-19T22:05:17.098Z,1.60
2024-04-19T22:07:47.476Z,1.60
2024-04-19T22:10:15.708Z,1.40
2024-04-19T22:12:44.105Z,1.53
2024-04-19T22:15:12.389Z,1.50
2024-04-19T22:17:40.762Z,1.37
2024-04-19T22:20:11.502Z,1.87
2024-04-19T22:22:40.976Z,1.40
2024-04-19T22:25:11.952Z,1.40
2024-04-19T22:27:40.189Z,1.60
2024-04-19T22:30:10.043Z,1.60
2024-04-19T22:32:38.394Z,1.60
2024-04-19T22:35:07.686Z,1.73
2024-04-19T22:37:36.252Z,1.50
2024-04-19T22:40:04.873Z,1.60
2024-04-19T22:42:35.362Z,1.37
2024-04-19T22:45:03.588Z,1.47
2024-04-19T22:47:32.224Z,1.60
2024-04-19T22:50:00.747Z,1.50
2024-04-19T22:52:29.257Z,1.33
2024-04-19T22:54:57.586Z,1.53
2024-04-19T22:57:26.070Z,1.70
2024-04-19T22:59:56.934Z,1.33
2024-04-19T23:02:25.470Z,1.47
2024-04-19T23:04:57.834Z,1.70
2024-04-19T23:07:26.138Z,1.40
2024-04-19T23:09:54.560Z,1.30
2024-04-19T23:12:23.160Z,1.60
2024-04-19T23:14:51.556Z,1.93
2024-04-19T23:17:22.529Z,1.43
2024-04-19T23:19:50.754Z,1.70
2024-04-19T23:22:19.106Z,1.40
2024-04-19T23:24:47.532Z,1.63
2024-04-19T23:27:15.905Z,1.30
2024-04-19T23:29:44.173Z,1.13
2024-04-19T23:32:12.678Z,1.40
2024-04-19T23:34:42.987Z,1.77
2024-04-19T23:37:11.267Z,1.43
2024-04-19T23:39:39.672Z,1.40
2024-04-19T23:42:08.333Z,1.20
2024-04-19T23:44:36.580Z,1.43
2024-04-19T23:47:08.084Z,1.70
2024-04-19T23:49:37.069Z,1.47
2024-04-19T23:52:07.848Z,1.27
2024-04-19T23:54:36.146Z,1.40
2024-04-19T23:57:04.452Z,1.57
2024-04-19T23:59:32.628Z,2.27
